sensor_id;sensor_type;location;lat;lon;timestamp;pressure;altitude;pressure_sealevel;temperature;humidity
10688;BME280;5392;42.688;23.298;2023-04-01T00:01:10;57357.06;;;-144.48;89.67
10688;BME280;5392;42.688;23.298;2023-04-01T00:03:40;57367.50;;;-144.48;90.68
10688;BME280;5392;42.688;23.298;2023-04-01T00:06:09;57359.16;;;-144.48;90.64
10688;BME280;5392;42.688;23.298;2023-04-01T00:08:37;57325.75;;;-144.48;91.99
10688;BME280;5392;42.688;23.298;2023-04-01T00:11:04;57346.63;;;-144.48;91.10
10688;BME280;5392;42.688;23.298;2023-04-01T00:13:31;57361.25;;;-144.48;89.51
10688;BME280;5392;42.688;23.298;2023-04-01T00:15:58;57350.81;;;-144.48;90.03
10688;BME280;5392;42.688;23.298;2023-04-01T00:18:26;57340.38;;;-144.48;91.11
10688;BME280;5392;42.688;23.298;2023-04-01T00:20:52;57348.72;;;-144.48;90.99
10688;BME280;5392;42.688;23.298;2023-04-01T00:23:20;57327.84;;;-144.48;94.21
10688;BME280;5392;42.688;23.298;2023-04-01T00:25:47;57361.25;;;-144.48;94.77
10688;BME280;5392;42.688;23.298;2023-04-01T00:28:19;57323.66;;;-144.48;94.88
10688;BME280;5392;42.688;23.298;2023-04-01T00:30:47;57354.97;;;-144.48;96.15
10688;BME280;5392;42.688;23.298;2023-04-01T00:33:13;57373.75;;;-144.48;97.20
10688;BME280;5392;42.688;23.298;2023-04-01T00:35:40;57392.56;;;-144.48;97.50
10688;BME280;5392;42.688;23.298;2023-04-01T00:38:08;57340.38;;;-144.48;98.48
10688;BME280;5392;42.688;23.298;2023-04-01T00:40:42;57329.94;;;-144.48;100.00
10688;BME280;5392;42.688;23.298;2023-04-01T00:43:18;57359.16;;;-144.48;100.00
10688;BME280;5392;42.688;23.298;2023-04-01T00:45:49;57338.28;;;-144.48;100.00
10688;BME280;5392;42.688;23.298;2023-04-01T00:48:18;57348.72;;;-144.48;100.00
10688;BME280;5392;42.688;23.298;2023-04-01T00:50:50;57371.69;;;-144.48;100.00
10688;BME280;5392;42.688;23.298;2023-04-01T00:53:19;57340.38;;;-144.48;100.00
10688;BME280;5392;42.688;23.298;2023-04-01T00:56:33;57384.19;;;-144.48;100.00
10688;BME280;5392;42.688;23.298;2023-04-01T00:58:44;57346.63;;;-144.48;100.00
10688;BME280;5392;42.688;23.298;2023-04-01T01:01:13;57313.22;;;-144.48;100.00
10688;BME280;5392;42.688;23.298;2023-04-01T01:03:39;57396.72;;;-144.48;100.00
10688;BME280;5392;42.688;23.298;2023-04-01T01:11:52;57340.38;;;-144.48;100.00
10688;BME280;5392;42.688;23.298;2023-04-01T01:17:26;57338.28;;;-144.48;100.00
10688;BME280;5392;42.688;23.298;2023-04-01T01:37:20;57338.28;;;-144.48;98.81
10688;BME280;5392;42.688;23.298;2023-04-01T01:39:53;57354.97;;;-144.48;98.89
10688;BME280;5392;42.688;23.298;2023-04-01T01:42:22;57329.94;;;-144.48;98.70
10688;BME280;5392;42.688;23.298;2023-04-01T01:44:52;57344.53;;;-144.48;98.05
10688;BME280;5392;42.688;23.298;2023-04-01T01:47:20;57375.84;;;-144.48;98.24
10688;BME280;5392;42.688;23.298;2023-04-01T01:49:50;57380.03;;;-144.48;98.55
10688;BME280;5392;42.688;23.298;2023-04-01T01:52:17;57375.84;;;-144.48;99.20
10688;BME280;5392;42.688;23.298;2023-04-01T01:54:55;57334.09;;;-144.48;99.68
10688;BME280;5392;42.688;23.298;2023-04-01T01:57:31;57361.25;;;-144.48;99.11
10688;BME280;5392;42.688;23.298;2023-04-01T02:00:05;57357.06;;;-144.48;97.87
10688;BME280;5392;42.688;23.298;2023-04-01T02:02:44;57371.69;;;-144.48;98.26
10688;BME280;5392;42.688;23.298;2023-04-01T02:05:17;57359.16;;;-144.48;97.39
10688;BME280;5392;42.688;23.298;2023-04-01T02:07:49;57361.25;;;-144.48;96.88
10688;BME280;5392;42.688;23.298;2023-04-01T02:10:21;57354.97;;;-144.48;96.45
10688;BME280;5392;42.688;23.298;2023-04-01T02:12:50;57346.63;;;-144.48;96.75
10688;BME280;5392;42.688;23.298;2023-04-01T02:15:20;57359.16;;;-144.48;96.83
10688;BME280;5392;42.688;23.298;2023-04-01T02:17:47;57361.25;;;-144.48;93.55
10688;BME280;5392;42.688;23.298;2023-04-01T02:20:21;57350.81;;;-144.48;94.40
10688;BME280;5392;42.688;23.298;2023-04-01T02:22:51;57407.16;;;-144.48;96.94
10688;BME280;5392;42.688;23.298;2023-04-01T02:25:26;57344.53;;;-144.48;96.14
10688;BME280;5392;42.688;23.298;2023-04-01T02:27:56;57359.16;;;-144.48;95.48
10688;BME280;5392;42.688;23.298;2023-04-01T02:30:26;57384.19;;;-144.48;95.58
10688;BME280;5392;42.688;23.298;2023-04-01T02:32:55;57340.38;;;-144.48;94.08
10688;BME280;5392;42.688;23.298;2023-04-01T02:35:23;57348.72;;;-144.48;93.28
10688;BME280;5392;42.688;23.298;2023-04-01T02:37:51;57313.22;;;-144.48;94.93
10688;BME280;5392;42.688;23.298;2023-04-01T02:40:19;57350.81;;;-144.48;96.66
10688;BME280;5392;42.688;23.298;2023-04-01T02:42:46;57300.72;;;-144.48;96.31
10688;BME280;5392;42.688;23.298;2023-04-01T02:45:13;57375.84;;;-144.48;95.53
10688;BME280;5392;42.688;23.298;2023-04-01T02:47:40;57392.56;;;-144.48;95.89
10688;BME280;5392;42.688;23.298;2023-04-01T02:50:08;57354.97;;;-144.48;93.96
10688;BME280;5392;42.688;23.298;2023-04-01T02:52:52;57336.19;;;-144.48;95.11
10688;BME280;5392;42.688;23.298;2023-04-01T02:55:19;57348.72;;;-144.48;96.19
10688;BME280;5392;42.688;23.298;2023-04-01T02:57:45;57344.53;;;-144.48;94.34
10688;BME280;5392;42.688;23.298;2023-04-01T03:00:12;57369.59;;;-144.48;95.67
10688;BME280;5392;42.688;23.298;2023-04-01T03:02:39;57342.47;;;-144.48;98.64
10688;BME280;5392;42.688;23.298;2023-04-01T03:05:06;57361.25;;;-144.48;99.99
10688;BME280;5392;42.688;23.298;2023-04-01T03:07:33;57329.94;;;-144.48;99.91
10688;BME280;5392;42.688;23.298;2023-04-01T03:10:00;57340.38;;;-144.48;97.84
10688;BME280;5392;42.688;23.298;2023-04-01T03:12:26;57336.19;;;-144.48;96.47
10688;BME280;5392;42.688;23.298;2023-04-01T03:14:53;57346.63;;;-144.48;98.11
10688;BME280;5392;42.688;23.298;2023-04-01T03:17:19;57346.63;;;-144.48;100.00
10688;BME280;5392;42.688;23.298;2023-04-01T03:19:46;57369.59;;;-144.48;98.78
10688;BME280;5392;42.688;23.298;2023-04-01T03:22:13;57350.81;;;-144.48;97.99
10688;BME280;5392;42.688;23.298;2023-04-01T03:24:39;57371.69;;;-144.48;98.03
10688;BME280;5392;42.688;23.298;2023-04-01T03:27:06;57350.81;;;-144.48;98.84
10688;BME280;5392;42.688;23.298;2023-04-01T03:29:33;57338.28;;;-144.48;98.46
10688;BME280;5392;42.688;23.298;2023-04-01T03:32:00;57367.50;;;-144.48;96.64
10688;BME280;5392;42.688;23.298;2023-04-01T03:34:26;57369.59;;;-144.48;94.79
10688;BME280;5392;42.688;23.298;2023-04-01T03:36:53;57367.50;;;-144.48;96.26
10688;BME280;5392;42.688;23.298;2023-04-01T03:39:20;57321.59;;;-144.48;99.16
10688;BME280;5392;42.688;23.298;2023-04-01T03:41:46;57338.28;;;-144.48;99.11
10688;BME280;5392;42.688;23.298;2023-04-01T03:44:13;57382.13;;;-144.48;97.74
10688;BME280;5392;42.688;23.298;2023-04-01T03:46:40;57371.69;;;-144.48;99.69
10688;BME280;5392;42.688;23.298;2023-04-01T03:49:08;57348.72;;;-144.48;97.87
10688;BME280;5392;42.688;23.298;2023-04-01T03:51:39;57386.28;;;-144.48;97.63
10688;BME280;5392;42.688;23.298;2023-04-01T03:54:06;57332.03;;;-144.48;98.53
10688;BME280;5392;42.688;23.298;2023-04-01T03:56:33;57334.09;;;-144.48;99.56
10688;BME280;5392;42.688;23.298;2023-04-01T03:59:03;57361.25;;;-144.48;100.00
10688;BME280;5392;42.688;23.298;2023-04-01T04:01:30;57338.28;;;-144.48;100.00
10688;BME280;5392;42.688;23.298;2023-04-01T04:03:57;57359.16;;;-144.48;100.00
10688;BME280;5392;42.688;23.298;2023-04-01T04:06:25;57348.72;;;-144.48;100.00
10688;BME280;5392;42.688;23.298;2023-04-01T04:08:52;57365.41;;;-144.48;100.00
10688;BME280;5392;42.688;23.298;2023-04-01T04:11:19;57334.09;;;-144.48;98.56
10688;BME280;5392;42.688;23.298;2023-04-01T04:13:46;57317.41;;;-144.48;98.40
10688;BME280;5392;42.688;23.298;2023-04-01T04:16:16;57365.41;;;-144.48;98.84
10688;BME280;5392;42.688;23.298;2023-04-01T04:18:43;57363.31;;;-144.48;99.88
10688;BME280;5392;42.688;23.298;2023-04-01T04:21:14;57357.06;;;-144.48;100.00
10688;BME280;5392;42.688;23.298;2023-04-01T04:23:42;57361.25;;;-144.48;100.00
10688;BME280;5392;42.688;23.298;2023-04-01T04:26:13;57340.38;;;-144.48;100.00
10688;BME280;5392;42.688;23.298;2023-04-01T04:28:40;57346.63;;;-144.48;100.00
10688;BME280;5392;42.688;23.298;2023-04-01T04:31:07;57346.63;;;-144.48;99.26
10688;BME280;5392;42.688;23.298;2023-04-01T04:33:35;57342.47;;;-144.48;95.34
10688;BME280;5392;42.688;23.298;2023-04-01T04:36:03;57338.28;;;-144.48;95.50
10688;BME280;5392;42.688;23.298;2023-04-01T04:38:30;57338.28;;;-144.48;97.12
10688;BME280;5392;42.688;23.298;2023-04-01T04:40:56;57363.31;;;-144.48;99.46
10688;BME280;5392;42.688;23.298;2023-04-01T04:43:23;57363.31;;;-144.48;100.00
10688;BME280;5392;42.688;23.298;2023-04-01T04:45:50;57388.38;;;-144.48;99.98
10688;BME280;5392;42.688;23.298;2023-04-01T04:48:17;57373.75;;;-144.48;92.66
10688;BME280;5392;42.688;23.298;2023-04-01T04:50:50;57336.19;;;-144.48;92.64
10688;BME280;5392;42.688;23.298;2023-04-01T04:53:18;57350.81;;;-144.48;94.28
10688;BME280;5392;42.688;23.298;2023-04-01T04:55:47;57357.06;;;-144.48;95.82
10688;BME280;5392;42.688;23.298;2023-04-01T04:58:15;57369.59;;;-144.48;94.31
10688;BME280;5392;42.688;23.298;2023-04-01T05:00:42;57346.63;;;-144.48;97.79
10688;BME280;5392;42.688;23.298;2023-04-01T05:03:10;57346.63;;;-144.48;94.19
10688;BME280;5392;42.688;23.298;2023-04-01T05:05:37;57329.94;;;-144.48;93.19
10688;BME280;5392;42.688;23.298;2023-04-01T05:08:04;57346.63;;;-144.48;89.71
10688;BME280;5392;42.688;23.298;2023-04-01T05:10:31;57342.47;;;-144.48;90.09
10688;BME280;5392;42.688;23.298;2023-04-01T05:12:58;57377.94;;;-144.48;87.62
10688;BME280;5392;42.688;23.298;2023-04-01T05:15:24;57329.94;;;-144.48;88.38
10688;BME280;5392;42.688;23.298;2023-04-01T05:17:51;57373.75;;;-144.48;89.93
10688;BME280;5392;42.688;23.298;2023-04-01T05:20:18;57369.59;;;-144.48;90.59
10688;BME280;5392;42.688;23.298;2023-04-01T05:22:44;57361.25;;;-144.48;87.30
10688;BME280;5392;42.688;23.298;2023-04-01T05:25:11;57367.50;;;-144.48;86.73
10688;BME280;5392;42.688;23.298;2023-04-01T05:27:38;57357.06;;;-144.48;84.62
10688;BME280;5392;42.688;23.298;2023-04-01T05:30:05;57340.38;;;-144.48;83.75
10688;BME280;5392;42.688;23.298;2023-04-01T05:32:32;57298.63;;;-144.48;81.66
10688;BME280;5392;42.688;23.298;2023-04-01T05:34:59;57300.72;;;-144.48;78.72
10688;BME280;5392;42.688;23.298;2023-04-01T05:37:26;57340.38;;;-144.48;68.97
10688;BME280;5392;42.688;23.298;2023-04-01T05:39:52;57336.19;;;-144.48;69.03
10688;BME280;5392;42.688;23.298;2023-04-01T05:42:19;57302.81;;;-144.48;67.95
10688;BME280;5392;42.688;23.298;2023-04-01T05:44:46;57321.59;;;-144.48;62.01
10688;BME280;5392;42.688;23.298;2023-04-01T05:47:12;57332.03;;;-144.48;59.83
10688;BME280;5392;42.688;23.298;2023-04-01T05:49:39;57348.72;;;-144.48;58.02
10688;BME280;5392;42.688;23.298;2023-04-01T05:52:07;57306.97;;;-144.48;56.89
10688;BME280;5392;42.688;23.298;2023-04-01T05:54:34;57336.19;;;-144.48;56.22
10688;BME280;5392;42.688;23.298;2023-04-01T05:57:01;57332.03;;;-144.48;56.67
10688;BME280;5392;42.688;23.298;2023-04-01T05:59:28;57350.81;;;-144.48;60.18
10688;BME280;5392;42.688;23.298;2023-04-01T06:01:57;57329.94;;;-144.48;58.60
10688;BME280;5392;42.688;23.298;2023-04-01T06:04:28;57304.88;;;-144.48;57.78
10688;BME280;5392;42.688;23.298;2023-04-01T06:06:58;57325.75;;;-144.48;56.78
10688;BME280;5392;42.688;23.298;2023-04-01T06:09:29;57292.38;;;-144.48;56.42
10688;BME280;5392;42.688;23.298;2023-04-01T06:14:47;57273.56;;;-144.48;56.79
10688;BME280;5392;42.688;23.298;2023-04-01T06:17:48;57332.03;;;-144.48;59.14
10688;BME280;5392;42.688;23.298;2023-04-01T06:37:26;57302.81;;;-144.48;64.99
10688;BME280;5392;42.688;23.298;2023-04-01T06:40:30;57342.47;;;-144.48;64.78
10688;BME280;5392;42.688;23.298;2023-04-01T06:46:11;57334.09;;;-144.48;66.79
10688;BME280;5392;42.688;23.298;2023-04-01T06:51:57;57332.03;;;-144.48;69.66
10688;BME280;5392;42.688;23.298;2023-04-01T06:54:26;57338.28;;;-144.48;70.67
10688;BME280;5392;42.688;23.298;2023-04-01T06:57:03;57329.94;;;-144.48;71.65
10688;BME280;5392;42.688;23.298;2023-04-01T06:59:34;57346.63;;;-144.48;71.30
10688;BME280;5392;42.688;23.298;2023-04-01T07:04:38;57346.63;;;-144.48;73.43
10688;BME280;5392;42.688;23.298;2023-04-01T07:07:43;57321.59;;;-144.48;74.01
10688;BME280;5392;42.688;23.298;2023-04-01T07:10:20;57342.47;;;-144.48;74.79
10688;BME280;5392;42.688;23.298;2023-04-01T07:12:53;57306.97;;;-144.48;74.74
10688;BME280;5392;42.688;23.298;2023-04-01T07:15:26;57334.09;;;-144.48;74.00
10688;BME280;5392;42.688;23.298;2023-04-01T07:18:19;57359.16;;;-144.48;73.24
10688;BME280;5392;42.688;23.298;2023-04-01T07:20:48;57342.47;;;-144.48;73.58
10688;BME280;5392;42.688;23.298;2023-04-01T07:23:36;57359.16;;;-144.48;73.87
10688;BME280;5392;42.688;23.298;2023-04-01T07:26:25;57296.53;;;-144.48;74.29
10688;BME280;5392;42.688;23.298;2023-04-01T07:28:53;57325.75;;;-144.48;74.72
10688;BME280;5392;42.688;23.298;2023-04-01T07:32:22;57327.84;;;-144.48;75.95
10688;BME280;5392;42.688;23.298;2023-04-01T07:37:45;57334.09;;;-144.48;72.55
10688;BME280;5392;42.688;23.298;2023-04-01T07:43:15;57344.53;;;-144.48;71.83
10688;BME280;5392;42.688;23.298;2023-04-01T07:51:54;57336.19;;;-144.48;72.15
10688;BME280;5392;42.688;23.298;2023-04-01T08:05:37;57357.06;;;-144.48;70.86
10688;BME280;5392;42.688;23.298;2023-04-01T08:10:52;57338.28;;;-144.48;71.26
10688;BME280;5392;42.688;23.298;2023-04-01T08:16:14;57348.72;;;-144.48;68.77
10688;BME280;5392;42.688;23.298;2023-04-01T08:21:43;57342.47;;;-144.48;70.00
10688;BME280;5392;42.688;23.298;2023-04-01T08:24:22;57344.53;;;-144.48;69.46
10688;BME280;5392;42.688;23.298;2023-04-01T08:26:57;57336.19;;;-144.48;68.53
10688;BME280;5392;42.688;23.298;2023-04-01T08:29:35;57311.16;;;-144.48;68.77
10688;BME280;5392;42.688;23.298;2023-04-01T08:32:18;57332.03;;;-144.48;68.77
10688;BME280;5392;42.688;23.298;2023-04-01T08:34:58;57357.06;;;-144.48;66.78
10688;BME280;5392;42.688;23.298;2023-04-01T08:37:35;57352.91;;;-144.48;63.53
10688;BME280;5392;42.688;23.298;2023-04-01T08:49:02;57319.50;;;-144.48;60.88
10688;BME280;5392;42.688;23.298;2023-04-01T08:57:21;57321.59;;;-144.48;60.20
10688;BME280;5392;42.688;23.298;2023-04-01T09:02:46;57313.22;;;-144.48;57.55
10688;BME280;5392;42.688;23.298;2023-04-01T09:05:35;57325.75;;;-144.48;58.84
10688;BME280;5392;42.688;23.298;2023-04-01T09:10:39;57313.22;;;-144.48;59.37
10688;BME280;5392;42.688;23.298;2023-04-01T09:13:24;57319.50;;;-144.48;60.07
10688;BME280;5392;42.688;23.298;2023-04-01T09:19:20;57334.09;;;-144.48;59.72
10688;BME280;5392;42.688;23.298;2023-04-01T09:27:52;57373.75;;;-144.48;60.83
10688;BME280;5392;42.688;23.298;2023-04-01T09:39:23;57340.38;;;-144.48;60.75
10688;BME280;5392;42.688;23.298;2023-04-01T09:44:56;57334.09;;;-144.48;60.79
10688;BME280;5392;42.688;23.298;2023-04-01T10:07:23;57300.72;;;-144.48;59.75
10688;BME280;5392;42.688;23.298;2023-04-01T10:20:59;57361.25;;;-144.48;60.47
10688;BME280;5392;42.688;23.298;2023-04-01T10:32:20;57342.47;;;-144.48;60.53
10688;BME280;5392;42.688;23.298;2023-04-01T11:06:46;57365.41;;;-144.48;62.65
10688;BME280;5392;42.688;23.298;2023-04-01T11:31:39;57350.81;;;-144.48;63.59
10688;BME280;5392;42.688;23.298;2023-04-01T11:42:47;57386.28;;;-144.48;73.61
10688;BME280;5392;42.688;23.298;2023-04-01T11:48:17;57413.44;;;-144.48;98.74
10688;BME280;5392;42.688;23.298;2023-04-01T11:53:44;57386.28;;;-144.48;100.00
10688;BME280;5392;42.688;23.298;2023-04-01T12:02:16;57396.72;;;-144.48;100.00
10688;BME280;5392;42.688;23.298;2023-04-01T12:10:21;57380.03;;;-144.48;100.00
10688;BME280;5392;42.688;23.298;2023-04-01T12:21:37;57375.84;;;-144.48;100.00
10688;BME280;5392;42.688;23.298;2023-04-01T12:27:01;57369.59;;;-144.48;100.00
10688;BME280;5392;42.688;23.298;2023-04-01T12:30:02;57398.81;;;-144.48;100.00
10688;BME280;5392;42.688;23.298;2023-04-01T12:33:10;57388.38;;;-144.48;100.00
10688;BME280;5392;42.688;23.298;2023-04-01T12:41:42;57405.06;;;-144.48;100.00
10688;BME280;5392;42.688;23.298;2023-04-01T12:44:48;57371.69;;;-144.48;100.00
10688;BME280;5392;42.688;23.298;2023-04-01T12:58:03;57359.16;;;-144.48;100.00
10688;BME280;5392;42.688;23.298;2023-04-01T13:00:56;57380.03;;;-144.48;100.00
10688;BME280;5392;42.688;23.298;2023-04-01T13:09:32;57371.69;;;-144.48;100.00
10688;BME280;5392;42.688;23.298;2023-04-01T13:17:31;57394.63;;;-144.48;100.00
10688;BME280;5392;42.688;23.298;2023-04-01T13:20:19;57396.72;;;-144.48;100.00
10688;BME280;5392;42.688;23.298;2023-04-01T13:25:39;57346.63;;;-144.48;100.00
10688;BME280;5392;42.688;23.298;2023-04-01T13:28:26;57388.38;;;-144.48;100.00
10688;BME280;5392;42.688;23.298;2023-04-01T13:44:35;57363.31;;;-144.48;100.00
10688;BME280;5392;42.688;23.298;2023-04-01T13:49:42;57371.69;;;-144.48;100.00
10688;BME280;5392;42.688;23.298;2023-04-01T14:15:33;57338.28;;;-144.48;72.35
10688;BME280;5392;42.688;23.298;2023-04-01T14:30:10;57367.50;;;-144.48;70.36
10688;BME280;5392;42.688;23.298;2023-04-01T14:33:06;57361.25;;;-144.48;69.68
10688;BME280;5392;42.688;23.298;2023-04-01T14:49:33;57388.38;;;-144.48;65.54
10688;BME280;5392;42.688;23.298;2023-04-01T14:52:23;57346.63;;;-144.48;65.22
10688;BME280;5392;42.688;23.298;2023-04-01T14:54:51;57359.16;;;-144.48;64.09
10688;BME280;5392;42.688;23.298;2023-04-01T14:57:28;57354.97;;;-144.48;64.51
10688;BME280;5392;42.688;23.298;2023-04-01T15:00:12;57373.75;;;-144.48;63.51
10688;BME280;5392;42.688;23.298;2023-04-01T15:02:55;57311.16;;;-144.48;63.55
10688;BME280;5392;42.688;23.298;2023-04-01T15:08:42;57377.94;;;-144.48;64.15
10688;BME280;5392;42.688;23.298;2023-04-01T15:15:14;57367.50;;;-144.48;80.59
10688;BME280;5392;42.688;23.298;2023-04-01T15:20:30;57367.50;;;-144.48;86.13
10688;BME280;5392;42.688;23.298;2023-04-01T15:23:39;57342.47;;;-144.48;90.07
10688;BME280;5392;42.688;23.298;2023-04-01T15:26:22;57332.03;;;-144.48;89.06
10688;BME280;5392;42.688;23.298;2023-04-01T15:40:34;57348.72;;;-144.48;96.47
10688;BME280;5392;42.688;23.298;2023-04-01T15:43:24;57392.56;;;-144.48;95.37
10688;BME280;5392;42.688;23.298;2023-04-01T15:48:49;57348.72;;;-144.48;89.61
10688;BME280;5392;42.688;23.298;2023-04-01T15:54:32;57342.47;;;-144.48;97.95
10688;BME280;5392;42.688;23.298;2023-04-01T16:03:13;57380.03;;;-144.48;100.00
10688;BME280;5392;42.688;23.298;2023-04-01T16:08:11;57363.31;;;-144.48;100.00
10688;BME280;5392;42.688;23.298;2023-04-01T16:10:45;57363.31;;;-144.48;100.00
10688;BME280;5392;42.688;23.298;2023-04-01T16:13:28;57359.16;;;-144.48;100.00
10688;BME280;5392;42.688;23.298;2023-04-01T16:21:43;57400.91;;;-144.48;100.00
10688;BME280;5392;42.688;23.298;2023-04-01T16:29:53;57344.53;;;-144.48;100.00
10688;BME280;5392;42.688;23.298;2023-04-01T16:32:46;57363.31;;;-144.48;100.00
10688;BME280;5392;42.688;23.298;2023-04-01T16:40:37;57392.56;;;-144.48;100.00
10688;BME280;5392;42.688;23.298;2023-04-01T16:51:22;57363.31;;;-144.48;100.00
10688;BME280;5392;42.688;23.298;2023-04-01T16:54:01;57411.34;;;-144.48;100.00
10688;BME280;5392;42.688;23.298;2023-04-01T16:56:39;57457.25;;;-144.48;100.00
10688;BME280;5392;42.688;23.298;2023-04-01T17:01:52;57415.50;;;-144.48;100.00
10688;BME280;5392;42.688;23.298;2023-04-01T17:04:41;57400.91;;;-144.48;100.00
10688;BME280;5392;42.688;23.298;2023-04-01T17:21:09;57384.19;;;-144.48;100.00
10688;BME280;5392;42.688;23.298;2023-04-01T17:37:57;57367.50;;;-144.48;100.00
10688;BME280;5392;42.688;23.298;2023-04-01T17:44:10;57369.59;;;-144.48;100.00
10688;BME280;5392;42.688;23.298;2023-04-01T17:49:23;57375.84;;;-144.48;100.00
10688;BME280;5392;42.688;23.298;2023-04-01T17:52:13;57396.72;;;-144.48;100.00
10688;BME280;5392;42.688;23.298;2023-04-01T18:08:15;57359.16;;;-144.48;100.00
10688;BME280;5392;42.688;23.298;2023-04-01T18:10:51;57382.13;;;-144.48;100.00
10688;BME280;5392;42.688;23.298;2023-04-01T18:19:04;57405.06;;;-144.48;100.00
10688;BME280;5392;42.688;23.298;2023-04-01T18:24:40;57344.53;;;-144.48;100.00
10688;BME280;5392;42.688;23.298;2023-04-01T18:35:24;57377.94;;;-144.48;100.00
10688;BME280;5392;42.688;23.298;2023-04-01T18:40:35;57357.06;;;-144.48;100.00
10688;BME280;5392;42.688;23.298;2023-04-01T18:45:54;57354.97;;;-144.48;100.00
10688;BME280;5392;42.688;23.298;2023-04-01T18:51:43;57396.72;;;-144.48;100.00
10688;BME280;5392;42.688;23.298;2023-04-01T18:56:43;57375.84;;;-144.48;100.00
10688;BME280;5392;42.688;23.298;2023-04-01T18:59:33;57405.06;;;-144.48;100.00
10688;BME280;5392;42.688;23.298;2023-04-01T19:02:24;57363.31;;;-144.48;100.00
10688;BME280;5392;42.688;23.298;2023-04-01T19:05:02;57373.75;;;-144.48;100.00
10688;BME280;5392;42.688;23.298;2023-04-01T19:10:37;57392.56;;;-144.48;100.00
10688;BME280;5392;42.688;23.298;2023-04-01T19:13:38;57363.31;;;-144.48;100.00
10688;BME280;5392;42.688;23.298;2023-04-01T19:22:17;57375.84;;;-144.48;100.00
10688;BME280;5392;42.688;23.298;2023-04-01T19:25:34;57392.56;;;-144.48;100.00
10688;BME280;5392;42.688;23.298;2023-04-01T19:37:01;57388.38;;;-144.48;100.00
10688;BME280;5392;42.688;23.298;2023-04-01T19:44:59;57342.47;;;-144.48;100.00
10688;BME280;5392;42.688;23.298;2023-04-01T19:47:43;57396.72;;;-144.48;100.00
10688;BME280;5392;42.688;23.298;2023-04-01T19:52:54;57400.91;;;-144.48;100.00
10688;BME280;5392;42.688;23.298;2023-04-01T19:56:22;57336.19;;;-144.48;100.00
10688;BME280;5392;42.688;23.298;2023-04-01T20:00:52;57371.69;;;-144.48;100.00
10688;BME280;5392;42.688;23.298;2023-04-01T20:10:59;57398.81;;;-144.48;100.00
10688;BME280;5392;42.688;23.298;2023-04-01T20:16:12;57386.28;;;-144.48;100.00
10688;BME280;5392;42.688;23.298;2023-04-01T20:19:00;57342.47;;;-144.48;100.00
10688;BME280;5392;42.688;23.298;2023-04-01T20:21:46;57382.13;;;-144.48;100.00
10688;BME280;5392;42.688;23.298;2023-04-01T20:26:43;57361.25;;;-144.48;100.00
10688;BME280;5392;42.688;23.298;2023-04-01T20:29:31;57384.19;;;-144.48;100.00
10688;BME280;5392;42.688;23.298;2023-04-01T20:32:19;57417.59;;;-144.48;100.00
10688;BME280;5392;42.688;23.298;2023-04-01T20:40:19;57394.63;;;-144.48;100.00
10688;BME280;5392;42.688;23.298;2023-04-01T20:49:10;57363.31;;;-144.48;100.00
10688;BME280;5392;42.688;23.298;2023-04-01T20:52:01;57363.31;;;-144.48;100.00
10688;BME280;5392;42.688;23.298;2023-04-01T20:55:47;57380.03;;;-144.48;100.00
10688;BME280;5392;42.688;23.298;2023-04-01T21:00:27;57375.84;;;-144.48;100.00
10688;BME280;5392;42.688;23.298;2023-04-01T21:03:34;57371.69;;;-144.48;100.00
10688;BME280;5392;42.688;23.298;2023-04-01T21:06:22;57377.94;;;-144.48;100.00
10688;BME280;5392;42.688;23.298;2023-04-01T21:09:10;57365.41;;;-144.48;100.00
10688;BME280;5392;42.688;23.298;2023-04-01T21:12:14;57359.16;;;-144.48;100.00
10688;BME280;5392;42.688;23.298;2023-04-01T21:23:35;57359.16;;;-144.48;100.00
10688;BME280;5392;42.688;23.298;2023-04-01T21:54:32;57375.84;;;-144.48;100.00
10688;BME280;5392;42.688;23.298;2023-04-01T21:57:34;57329.94;;;-144.48;100.00
10688;BME280;5392;42.688;23.298;2023-04-01T22:00:32;57329.94;;;-144.48;100.00
10688;BME280;5392;42.688;23.298;2023-04-01T22:03:20;57323.66;;;-144.48;100.00
10688;BME280;5392;42.688;23.298;2023-04-01T22:14:24;57384.19;;;-144.48;100.00
10688;BME280;5392;42.688;23.298;2023-04-01T22:16:57;57371.69;;;-144.48;100.00
10688;BME280;5392;42.688;23.298;2023-04-01T22:19:39;57357.06;;;-144.48;100.00
10688;BME280;5392;42.688;23.298;2023-04-01T22:24:59;57363.31;;;-144.48;100.00
10688;BME280;5392;42.688;23.298;2023-04-01T22:30:03;57334.09;;;-144.48;100.00
10688;BME280;5392;42.688;23.298;2023-04-01T22:32:52;57386.28;;;-144.48;100.00
10688;BME280;5392;42.688;23.298;2023-04-01T22:37:58;57380.03;;;-144.48;100.00
10688;BME280;5392;42.688;23.298;2023-04-01T22:40:41;57367.50;;;-144.48;100.00
10688;BME280;5392;42.688;23.298;2023-04-01T22:43:13;57321.59;;;-144.48;100.00
10688;BME280;5392;42.688;23.298;2023-04-01T22:56:49;57367.50;;;-144.48;100.00
10688;BME280;5392;42.688;23.298;2023-04-01T23:01:53;57373.75;;;-144.48;100.00
10688;BME280;5392;42.688;23.298;2023-04-01T23:04:24;57388.38;;;-144.48;100.00
10688;BME280;5392;42.688;23.298;2023-04-01T23:06:57;57367.50;;;-144.48;100.00
10688;BME280;5392;42.688;23.298;2023-04-01T23:09:31;57367.50;;;-144.48;100.00
10688;BME280;5392;42.688;23.298;2023-04-01T23:12:07;57350.81;;;-144.48;100.00
10688;BME280;5392;42.688;23.298;2023-04-01T23:33:29;57403.00;;;-144.48;100.00
10688;BME280;5392;42.688;23.298;2023-04-01T23:35:59;57359.16;;;-144.48;100.00
10688;BME280;5392;42.688;23.298;2023-04-01T23:38:40;57354.97;;;-144.48;100.00
10688;BME280;5392;42.688;23.298;2023-04-01T23:41:19;57340.38;;;-144.48;100.00
10688;BME280;5392;42.688;23.298;2023-04-01T23:43:57;57350.81;;;-144.48;100.00
10688;BME280;5392;42.688;23.298;2023-04-01T23:46:25;57369.59;;;-144.48;100.00
10688;BME280;5392;42.688;23.298;2023-04-01T23:48:53;57384.19;;;-144.48;100.00